sensor_id;sensor_type;location;lat;lon;timestamp;P1;durP1;ratioP1;P2;durP2;ratioP2
26690;SDS011;14307;51.718;8.938;2023-02-03T00:00:57;245.18;;;86.38;;
26690;SDS011;14307;51.718;8.938;2023-02-03T00:03:24;224.57;;;85.82;;
26690;SDS011;14307;51.718;8.938;2023-02-03T00:05:51;229.27;;;89.68;;
26690;SDS011;14307;51.718;8.938;2023-02-03T00:08:17;212.52;;;84.88;;
26690;SDS011;14307;51.718;8.938;2023-02-03T00:10:44;211.52;;;81.75;;
26690;SDS011;14307;51.718;8.938;2023-02-03T00:13:12;217.25;;;84.45;;
26690;SDS011;14307;51.718;8.938;2023-02-03T00:15:39;194.70;;;80.28;;
26690;SDS011;14307;51.718;8.938;2023-02-03T00:18:06;192.57;;;78.45;;
26690;SDS011;14307;51.718;8.938;2023-02-03T00:20:33;195.45;;;80.38;;
26690;SDS011;14307;51.718;8.938;2023-02-03T00:23:03;211.48;;;85.63;;
26690;SDS011;14307;51.718;8.938;2023-02-03T00:25:34;213.13;;;85.68;;
26690;SDS011;14307;51.718;8.938;2023-02-03T00:28:01;190.70;;;81.75;;
26690;SDS011;14307;51.718;8.938;2023-02-03T00:30:29;184.98;;;76.70;;
26690;SDS011;14307;51.718;8.938;2023-02-03T00:32:56;178.95;;;76.80;;
26690;SDS011;14307;51.718;8.938;2023-02-03T00:35:23;186.25;;;78.65;;
26690;SDS011;14307;51.718;8.938;2023-02-03T00:37:53;173.68;;;72.55;;
26690;SDS011;14307;51.718;8.938;2023-02-03T00:40:21;184.48;;;76.72;;
26690;SDS011;14307;51.718;8.938;2023-02-03T00:42:50;185.32;;;76.63;;
26690;SDS011;14307;51.718;8.938;2023-02-03T00:45:17;154.07;;;64.50;;
26690;SDS011;14307;51.718;8.938;2023-02-03T00:47:44;166.40;;;72.95;;
26690;SDS011;14307;51.718;8.938;2023-02-03T00:50:11;155.30;;;68.00;;
26690;SDS011;14307;51.718;8.938;2023-02-03T00:52:38;161.52;;;68.75;;
26690;SDS011;14307;51.718;8.938;2023-02-03T00:55:06;145.80;;;65.88;;
26690;SDS011;14307;51.718;8.938;2023-02-03T00:57:33;164.27;;;71.53;;
26690;SDS011;14307;51.718;8.938;2023-02-03T01:00:00;148.23;;;64.65;;
26690;SDS011;14307;51.718;8.938;2023-02-03T01:02:27;172.48;;;70.82;;
26690;SDS011;14307;51.718;8.938;2023-02-03T01:04:54;151.52;;;65.55;;
26690;SDS011;14307;51.718;8.938;2023-02-03T01:07:20;112.82;;;55.30;;
26690;SDS011;14307;51.718;8.938;2023-02-03T01:09:47;153.30;;;65.55;;
26690;SDS011;14307;51.718;8.938;2023-02-03T01:12:14;141.23;;;67.05;;
26690;SDS011;14307;51.718;8.938;2023-02-03T01:14:40;145.57;;;66.18;;
26690;SDS011;14307;51.718;8.938;2023-02-03T01:17:07;128.73;;;60.97;;
26690;SDS011;14307;51.718;8.938;2023-02-03T01:19:34;139.80;;;65.63;;
26690;SDS011;14307;51.718;8.938;2023-02-03T01:22:01;130.05;;;57.83;;
26690;SDS011;14307;51.718;8.938;2023-02-03T01:24:28;154.65;;;68.22;;
26690;SDS011;14307;51.718;8.938;2023-02-03T01:26:55;126.25;;;58.35;;
26690;SDS011;14307;51.718;8.938;2023-02-03T01:29:22;128.00;;;59.17;;
26690;SDS011;14307;51.718;8.938;2023-02-03T01:31:49;122.30;;;56.25;;
26690;SDS011;14307;51.718;8.938;2023-02-03T01:34:16;119.38;;;54.92;;
26690;SDS011;14307;51.718;8.938;2023-02-03T01:36:43;126.88;;;58.30;;
26690;SDS011;14307;51.718;8.938;2023-02-03T01:39:11;116.40;;;53.53;;
26690;SDS011;14307;51.718;8.938;2023-02-03T01:41:38;118.20;;;56.58;;
26690;SDS011;14307;51.718;8.938;2023-02-03T01:46:57;124.28;;;57.60;;
26690;SDS011;14307;51.718;8.938;2023-02-03T01:49:26;110.00;;;53.80;;
26690;SDS011;14307;51.718;8.938;2023-02-03T01:51:56;99.53;;;48.35;;
26690;SDS011;14307;51.718;8.938;2023-02-03T01:54:25;88.07;;;42.33;;
26690;SDS011;14307;51.718;8.938;2023-02-03T01:57:00;107.28;;;51.50;;
26690;SDS011;14307;51.718;8.938;2023-02-03T02:01:59;98.18;;;44.25;;
26690;SDS011;14307;51.718;8.938;2023-02-03T02:04:28;105.15;;;51.17;;
26690;SDS011;14307;51.718;8.938;2023-02-03T02:07:02;114.80;;;52.60;;
26690;SDS011;14307;51.718;8.938;2023-02-03T02:09:29;110.95;;;51.67;;
26690;SDS011;14307;51.718;8.938;2023-02-03T02:11:55;108.60;;;52.67;;
26690;SDS011;14307;51.718;8.938;2023-02-03T02:14:22;111.30;;;51.88;;
26690;SDS011;14307;51.718;8.938;2023-02-03T02:16:52;113.60;;;54.70;;
26690;SDS011;14307;51.718;8.938;2023-02-03T02:19:37;96.75;;;47.33;;
26690;SDS011;14307;51.718;8.938;2023-02-03T02:22:29;109.97;;;54.90;;
26690;SDS011;14307;51.718;8.938;2023-02-03T02:36:29;90.88;;;43.90;;
26690;SDS011;14307;51.718;8.938;2023-02-03T02:39:08;91.88;;;43.85;;
26690;SDS011;14307;51.718;8.938;2023-02-03T02:41:46;101.90;;;51.03;;
26690;SDS011;14307;51.718;8.938;2023-02-03T02:44:29;98.07;;;46.08;;
26690;SDS011;14307;51.718;8.938;2023-02-03T02:47:07;99.28;;;45.85;;
26690;SDS011;14307;51.718;8.938;2023-02-03T02:49:43;100.50;;;50.03;;
26690;SDS011;14307;51.718;8.938;2023-02-03T02:52:12;102.53;;;49.47;;
26690;SDS011;14307;51.718;8.938;2023-02-03T02:54:42;92.53;;;48.45;;
26690;SDS011;14307;51.718;8.938;2023-02-03T02:57:13;87.90;;;45.75;;
26690;SDS011;14307;51.718;8.938;2023-02-03T02:59:44;94.72;;;46.60;;
26690;SDS011;14307;51.718;8.938;2023-02-03T03:02:11;85.03;;;42.97;;
26690;SDS011;14307;51.718;8.938;2023-02-03T03:04:38;85.35;;;42.70;;
26690;SDS011;14307;51.718;8.938;2023-02-03T03:07:07;89.85;;;44.28;;
26690;SDS011;14307;51.718;8.938;2023-02-03T03:09:40;82.07;;;42.83;;
26690;SDS011;14307;51.718;8.938;2023-02-03T03:12:12;85.43;;;40.97;;
26690;SDS011;14307;51.718;8.938;2023-02-03T03:14:44;81.22;;;40.78;;
26690;SDS011;14307;51.718;8.938;2023-02-03T03:17:24;81.47;;;36.35;;
26690;SDS011;14307;51.718;8.938;2023-02-03T03:19:55;83.50;;;45.30;;
26690;SDS011;14307;51.718;8.938;2023-02-03T03:22:29;82.90;;;44.00;;
26690;SDS011;14307;51.718;8.938;2023-02-03T03:25:02;93.00;;;45.60;;
26690;SDS011;14307;51.718;8.938;2023-02-03T03:27:37;87.63;;;44.58;;
26690;SDS011;14307;51.718;8.938;2023-02-03T03:30:09;85.63;;;43.45;;
26690;SDS011;14307;51.718;8.938;2023-02-03T03:32:40;80.30;;;40.30;;
26690;SDS011;14307;51.718;8.938;2023-02-03T03:35:06;77.07;;;41.88;;
26690;SDS011;14307;51.718;8.938;2023-02-03T03:37:35;87.45;;;45.75;;
26690;SDS011;14307;51.718;8.938;2023-02-03T03:40:24;80.03;;;43.65;;
26690;SDS011;14307;51.718;8.938;2023-02-03T03:42:57;92.55;;;45.50;;
26690;SDS011;14307;51.718;8.938;2023-02-03T03:45:51;92.63;;;48.53;;
26690;SDS011;14307;51.718;8.938;2023-02-03T03:48:36;91.85;;;45.42;;
26690;SDS011;14307;51.718;8.938;2023-02-03T03:51:15;86.85;;;44.28;;
26690;SDS011;14307;51.718;8.938;2023-02-03T03:53:48;81.68;;;45.17;;
26690;SDS011;14307;51.718;8.938;2023-02-03T03:56:19;89.07;;;45.22;;
26690;SDS011;14307;51.718;8.938;2023-02-03T04:01:19;86.40;;;44.45;;
26690;SDS011;14307;51.718;8.938;2023-02-03T04:03:48;78.00;;;40.40;;
26690;SDS011;14307;51.718;8.938;2023-02-03T04:06:19;76.40;;;40.88;;
26690;SDS011;14307;51.718;8.938;2023-02-03T04:08:46;88.03;;;43.33;;
26690;SDS011;14307;51.718;8.938;2023-02-03T04:11:12;82.72;;;44.00;;
26690;SDS011;14307;51.718;8.938;2023-02-03T04:13:59;78.68;;;39.53;;
26690;SDS011;14307;51.718;8.938;2023-02-03T04:16:26;85.85;;;42.60;;
26690;SDS011;14307;51.718;8.938;2023-02-03T04:18:52;77.75;;;41.47;;
26690;SDS011;14307;51.718;8.938;2023-02-03T04:21:19;76.93;;;36.20;;
26690;SDS011;14307;51.718;8.938;2023-02-03T04:23:46;73.05;;;39.35;;
26690;SDS011;14307;51.718;8.938;2023-02-03T04:26:13;79.85;;;40.83;;
26690;SDS011;14307;51.718;8.938;2023-02-03T04:28:40;72.32;;;40.60;;
26690;SDS011;14307;51.718;8.938;2023-02-03T04:31:06;76.68;;;40.13;;
26690;SDS011;14307;51.718;8.938;2023-02-03T04:33:33;71.32;;;36.78;;
26690;SDS011;14307;51.718;8.938;2023-02-03T04:36:00;81.68;;;40.17;;
26690;SDS011;14307;51.718;8.938;2023-02-03T04:38:27;78.07;;;40.08;;
26690;SDS011;14307;51.718;8.938;2023-02-03T04:40:53;72.88;;;38.83;;
26690;SDS011;14307;51.718;8.938;2023-02-03T04:43:20;72.55;;;38.20;;
26690;SDS011;14307;51.718;8.938;2023-02-03T04:45:47;69.20;;;37.50;;
26690;SDS011;14307;51.718;8.938;2023-02-03T04:48:13;87.10;;;39.85;;
26690;SDS011;14307;51.718;8.938;2023-02-03T04:50:40;68.68;;;36.00;;
26690;SDS011;14307;51.718;8.938;2023-02-03T04:53:07;72.15;;;38.17;;
26690;SDS011;14307;51.718;8.938;2023-02-03T04:55:33;75.22;;;39.67;;
26690;SDS011;14307;51.718;8.938;2023-02-03T04:58:00;68.18;;;37.72;;
26690;SDS011;14307;51.718;8.938;2023-02-03T05:00:27;74.85;;;39.00;;
26690;SDS011;14307;51.718;8.938;2023-02-03T05:02:55;69.93;;;39.70;;
26690;SDS011;14307;51.718;8.938;2023-02-03T05:05:22;66.05;;;37.60;;
26690;SDS011;14307;51.718;8.938;2023-02-03T05:07:48;63.00;;;34.92;;
26690;SDS011;14307;51.718;8.938;2023-02-03T05:10:15;65.60;;;35.53;;
26690;SDS011;14307;51.718;8.938;2023-02-03T05:12:41;67.13;;;35.85;;
26690;SDS011;14307;51.718;8.938;2023-02-03T05:15:09;62.30;;;32.42;;
26690;SDS011;14307;51.718;8.938;2023-02-03T05:17:35;61.10;;;34.45;;
26690;SDS011;14307;51.718;8.938;2023-02-03T05:20:05;57.47;;;31.45;;
26690;SDS011;14307;51.718;8.938;2023-02-03T05:22:32;57.97;;;33.45;;
26690;SDS011;14307;51.718;8.938;2023-02-03T05:25:01;64.53;;;31.90;;
26690;SDS011;14307;51.718;8.938;2023-02-03T05:27:28;58.28;;;31.90;;
26690;SDS011;14307;51.718;8.938;2023-02-03T05:29:55;64.80;;;34.45;;
26690;SDS011;14307;51.718;8.938;2023-02-03T05:32:22;59.67;;;31.63;;
26690;SDS011;14307;51.718;8.938;2023-02-03T05:34:48;63.28;;;33.03;;
26690;SDS011;14307;51.718;8.938;2023-02-03T05:37:15;55.83;;;29.55;;
26690;SDS011;14307;51.718;8.938;2023-02-03T05:39:41;53.90;;;29.20;;
26690;SDS011;14307;51.718;8.938;2023-02-03T05:42:08;47.83;;;27.48;;
26690;SDS011;14307;51.718;8.938;2023-02-03T05:44:35;46.45;;;26.77;;
26690;SDS011;14307;51.718;8.938;2023-02-03T05:47:01;56.83;;;27.92;;
26690;SDS011;14307;51.718;8.938;2023-02-03T05:49:28;45.08;;;26.83;;
26690;SDS011;14307;51.718;8.938;2023-02-03T05:51:55;47.75;;;28.00;;
26690;SDS011;14307;51.718;8.938;2023-02-03T05:54:22;41.13;;;25.17;;
26690;SDS011;14307;51.718;8.938;2023-02-03T05:56:48;49.28;;;27.90;;
26690;SDS011;14307;51.718;8.938;2023-02-03T05:59:15;46.90;;;26.38;;
26690;SDS011;14307;51.718;8.938;2023-02-03T06:01:42;42.25;;;25.45;;
26690;SDS011;14307;51.718;8.938;2023-02-03T06:04:09;45.75;;;24.58;;
26690;SDS011;14307;51.718;8.938;2023-02-03T06:06:36;43.83;;;25.23;;
26690;SDS011;14307;51.718;8.938;2023-02-03T06:09:04;42.80;;;23.60;;
26690;SDS011;14307;51.718;8.938;2023-02-03T06:11:32;56.15;;;29.13;;
26690;SDS011;14307;51.718;8.938;2023-02-03T06:14:01;45.30;;;26.60;;
26690;SDS011;14307;51.718;8.938;2023-02-03T06:16:28;50.08;;;27.08;;
26690;SDS011;14307;51.718;8.938;2023-02-03T06:18:55;46.60;;;27.75;;
26690;SDS011;14307;51.718;8.938;2023-02-03T06:21:26;46.00;;;28.02;;
26690;SDS011;14307;51.718;8.938;2023-02-03T06:23:53;50.08;;;26.58;;
26690;SDS011;14307;51.718;8.938;2023-02-03T06:26:21;50.35;;;25.77;;
26690;SDS011;14307;51.718;8.938;2023-02-03T06:28:48;45.83;;;26.65;;
26690;SDS011;14307;51.718;8.938;2023-02-03T06:31:15;47.92;;;26.65;;
26690;SDS011;14307;51.718;8.938;2023-02-03T06:33:41;46.53;;;25.90;;
26690;SDS011;14307;51.718;8.938;2023-02-03T06:36:08;46.03;;;25.55;;
26690;SDS011;14307;51.718;8.938;2023-02-03T06:38:35;49.50;;;25.63;;
26690;SDS011;14307;51.718;8.938;2023-02-03T06:41:02;48.60;;;29.25;;
26690;SDS011;14307;51.718;8.938;2023-02-03T06:43:28;59.22;;;32.08;;
26690;SDS011;14307;51.718;8.938;2023-02-03T06:45:55;53.53;;;28.98;;
26690;SDS011;14307;51.718;8.938;2023-02-03T06:48:22;63.55;;;33.78;;
26690;SDS011;14307;51.718;8.938;2023-02-03T06:50:49;71.25;;;35.70;;
26690;SDS011;14307;51.718;8.938;2023-02-03T06:53:16;63.47;;;34.28;;
26690;SDS011;14307;51.718;8.938;2023-02-03T06:55:42;72.50;;;36.30;;
26690;SDS011;14307;51.718;8.938;2023-02-03T06:58:09;78.75;;;37.58;;
26690;SDS011;14307;51.718;8.938;2023-02-03T07:00:36;63.47;;;31.15;;
26690;SDS011;14307;51.718;8.938;2023-02-03T07:03:03;57.20;;;30.70;;
26690;SDS011;14307;51.718;8.938;2023-02-03T07:05:30;81.30;;;37.38;;
26690;SDS011;14307;51.718;8.938;2023-02-03T07:07:56;78.43;;;39.70;;
26690;SDS011;14307;51.718;8.938;2023-02-03T07:10:24;82.28;;;39.70;;
26690;SDS011;14307;51.718;8.938;2023-02-03T07:12:51;79.90;;;38.17;;
26690;SDS011;14307;51.718;8.938;2023-02-03T07:15:18;88.07;;;43.65;;
26690;SDS011;14307;51.718;8.938;2023-02-03T07:17:45;78.28;;;40.92;;
26690;SDS011;14307;51.718;8.938;2023-02-03T07:20:20;79.35;;;37.17;;
26690;SDS011;14307;51.718;8.938;2023-02-03T07:22:54;94.03;;;43.08;;
26690;SDS011;14307;51.718;8.938;2023-02-03T07:25:22;56.28;;;27.48;;
26690;SDS011;14307;51.718;8.938;2023-02-03T07:27:49;82.38;;;39.28;;
26690;SDS011;14307;51.718;8.938;2023-02-03T07:30:16;90.07;;;41.80;;
26690;SDS011;14307;51.718;8.938;2023-02-03T07:32:47;93.10;;;43.55;;
26690;SDS011;14307;51.718;8.938;2023-02-03T07:35:15;82.40;;;40.88;;
26690;SDS011;14307;51.718;8.938;2023-02-03T07:37:41;83.47;;;40.78;;
26690;SDS011;14307;51.718;8.938;2023-02-03T07:40:09;86.10;;;41.45;;
26690;SDS011;14307;51.718;8.938;2023-02-03T07:42:39;92.47;;;41.25;;
26690;SDS011;14307;51.718;8.938;2023-02-03T07:45:08;81.18;;;40.35;;
26690;SDS011;14307;51.718;8.938;2023-02-03T07:47:35;79.95;;;37.20;;
26690;SDS011;14307;51.718;8.938;2023-02-03T07:50:02;85.63;;;40.67;;
26690;SDS011;14307;51.718;8.938;2023-02-03T07:52:29;79.57;;;39.13;;
26690;SDS011;14307;51.718;8.938;2023-02-03T07:54:56;82.75;;;38.17;;
26690;SDS011;14307;51.718;8.938;2023-02-03T07:57:23;75.28;;;35.28;;
26690;SDS011;14307;51.718;8.938;2023-02-03T07:59:49;91.05;;;43.92;;
26690;SDS011;14307;51.718;8.938;2023-02-03T08:02:16;87.30;;;42.60;;
26690;SDS011;14307;51.718;8.938;2023-02-03T08:04:43;93.53;;;44.83;;
26690;SDS011;14307;51.718;8.938;2023-02-03T08:07:09;68.13;;;33.75;;
26690;SDS011;14307;51.718;8.938;2023-02-03T08:09:36;75.43;;;37.78;;
26690;SDS011;14307;51.718;8.938;2023-02-03T08:12:03;83.05;;;41.35;;
26690;SDS011;14307;51.718;8.938;2023-02-03T08:14:29;76.18;;;37.88;;
26690;SDS011;14307;51.718;8.938;2023-02-03T08:16:56;85.22;;;39.97;;
26690;SDS011;14307;51.718;8.938;2023-02-03T08:19:23;83.78;;;42.10;;
26690;SDS011;14307;51.718;8.938;2023-02-03T08:21:49;95.53;;;47.05;;
26690;SDS011;14307;51.718;8.938;2023-02-03T08:24:16;96.45;;;45.90;;
26690;SDS011;14307;51.718;8.938;2023-02-03T08:26:43;101.72;;;45.40;;
26690;SDS011;14307;51.718;8.938;2023-02-03T08:29:09;99.35;;;41.88;;
26690;SDS011;14307;51.718;8.938;2023-02-03T08:31:36;108.75;;;50.75;;
26690;SDS011;14307;51.718;8.938;2023-02-03T08:34:04;116.70;;;51.00;;
26690;SDS011;14307;51.718;8.938;2023-02-03T08:36:31;82.60;;;39.13;;
26690;SDS011;14307;51.718;8.938;2023-02-03T08:38:57;112.30;;;50.45;;
26690;SDS011;14307;51.718;8.938;2023-02-03T08:41:24;120.95;;;50.15;;
26690;SDS011;14307;51.718;8.938;2023-02-03T08:43:51;99.68;;;42.25;;
26690;SDS011;14307;51.718;8.938;2023-02-03T08:46:19;104.13;;;46.90;;
26690;SDS011;14307;51.718;8.938;2023-02-03T08:48:45;94.55;;;42.67;;
26690;SDS011;14307;51.718;8.938;2023-02-03T08:51:13;89.45;;;39.10;;
26690;SDS011;14307;51.718;8.938;2023-02-03T08:53:41;115.90;;;52.30;;
26690;SDS011;14307;51.718;8.938;2023-02-03T08:56:09;108.03;;;46.45;;
26690;SDS011;14307;51.718;8.938;2023-02-03T08:58:38;122.45;;;50.80;;
26690;SDS011;14307;51.718;8.938;2023-02-03T09:01:05;116.85;;;45.22;;
26690;SDS011;14307;51.718;8.938;2023-02-03T09:03:34;118.70;;;47.13;;
26690;SDS011;14307;51.718;8.938;2023-02-03T09:06:00;90.53;;;42.38;;
26690;SDS011;14307;51.718;8.938;2023-02-03T09:08:27;125.05;;;50.58;;
26690;SDS011;14307;51.718;8.938;2023-02-03T09:10:54;100.03;;;43.67;;
26690;SDS011;14307;51.718;8.938;2023-02-03T09:13:21;77.63;;;36.03;;
26690;SDS011;14307;51.718;8.938;2023-02-03T09:15:48;112.00;;;45.75;;
26690;SDS011;14307;51.718;8.938;2023-02-03T09:18:14;125.95;;;54.15;;
26690;SDS011;14307;51.718;8.938;2023-02-03T09:20:41;116.95;;;50.35;;
26690;SDS011;14307;51.718;8.938;2023-02-03T09:23:08;112.22;;;50.17;;
26690;SDS011;14307;51.718;8.938;2023-02-03T09:25:34;131.85;;;55.55;;
26690;SDS011;14307;51.718;8.938;2023-02-03T09:28:01;114.65;;;48.10;;
26690;SDS011;14307;51.718;8.938;2023-02-03T09:30:29;140.32;;;57.45;;
26690;SDS011;14307;51.718;8.938;2023-02-03T09:32:56;140.93;;;59.72;;
26690;SDS011;14307;51.718;8.938;2023-02-03T09:35:24;155.57;;;61.03;;
26690;SDS011;14307;51.718;8.938;2023-02-03T09:37:52;133.38;;;54.22;;
26690;SDS011;14307;51.718;8.938;2023-02-03T09:40:19;156.02;;;61.42;;
26690;SDS011;14307;51.718;8.938;2023-02-03T09:42:54;150.75;;;59.95;;
26690;SDS011;14307;51.718;8.938;2023-02-03T09:45:28;147.00;;;60.25;;
26690;SDS011;14307;51.718;8.938;2023-02-03T09:47:58;125.00;;;51.47;;
26690;SDS011;14307;51.718;8.938;2023-02-03T09:50:38;137.88;;;58.75;;
26690;SDS011;14307;51.718;8.938;2023-02-03T09:53:16;113.75;;;51.53;;
26690;SDS011;14307;51.718;8.938;2023-02-03T09:55:58;110.22;;;47.38;;
26690;SDS011;14307;51.718;8.938;2023-02-03T09:58:25;109.88;;;48.88;;
26690;SDS011;14307;51.718;8.938;2023-02-03T10:00:58;113.78;;;50.60;;
26690;SDS011;14307;51.718;8.938;2023-02-03T10:03:37;105.60;;;47.30;;
26690;SDS011;14307;51.718;8.938;2023-02-03T10:22:15;93.00;;;42.63;;
26690;SDS011;14307;51.718;8.938;2023-02-03T10:24:54;106.10;;;47.38;;
26690;SDS011;14307;51.718;8.938;2023-02-03T10:27:28;106.47;;;44.90;;
26690;SDS011;14307;51.718;8.938;2023-02-03T10:32:37;100.47;;;45.15;;
26690;SDS011;14307;51.718;8.938;2023-02-03T10:35:09;111.90;;;47.35;;
26690;SDS011;14307;51.718;8.938;2023-02-03T10:37:44;84.32;;;41.78;;
26690;SDS011;14307;51.718;8.938;2023-02-03T10:40:16;102.15;;;44.08;;
26690;SDS011;14307;51.718;8.938;2023-02-03T10:42:43;92.97;;;42.85;;
26690;SDS011;14307;51.718;8.938;2023-02-03T10:45:32;90.80;;;41.60;;
26690;SDS011;14307;51.718;8.938;2023-02-03T10:48:03;74.38;;;33.75;;
26690;SDS011;14307;51.718;8.938;2023-02-03T10:50:35;68.38;;;33.80;;
26690;SDS011;14307;51.718;8.938;2023-02-03T10:53:25;74.20;;;34.95;;
26690;SDS011;14307;51.718;8.938;2023-02-03T10:55:58;68.38;;;31.50;;
26690;SDS011;14307;51.718;8.938;2023-02-03T10:58:28;68.97;;;32.30;;
26690;SDS011;14307;51.718;8.938;2023-02-03T11:01:10;68.30;;;31.15;;
26690;SDS011;14307;51.718;8.938;2023-02-03T11:03:41;60.05;;;27.75;;
26690;SDS011;14307;51.718;8.938;2023-02-03T11:06:11;59.70;;;28.92;;
26690;SDS011;14307;51.718;8.938;2023-02-03T11:08:41;48.10;;;23.60;;
26690;SDS011;14307;51.718;8.938;2023-02-03T11:11:31;54.72;;;24.10;;
26690;SDS011;14307;51.718;8.938;2023-02-03T11:16:29;50.53;;;22.30;;
26690;SDS011;14307;51.718;8.938;2023-02-03T11:19:05;54.70;;;24.17;;
26690;SDS011;14307;51.718;8.938;2023-02-03T11:21:52;47.40;;;20.67;;
26690;SDS011;14307;51.718;8.938;2023-02-03T11:24:37;41.70;;;21.52;;
26690;SDS011;14307;51.718;8.938;2023-02-03T11:27:10;56.15;;;23.42;;
26690;SDS011;14307;51.718;8.938;2023-02-03T11:29:41;47.10;;;23.00;;
26690;SDS011;14307;51.718;8.938;2023-02-03T11:32:15;49.60;;;23.38;;
26690;SDS011;14307;51.718;8.938;2023-02-03T11:40:35;48.78;;;23.88;;
26690;SDS011;14307;51.718;8.938;2023-02-03T11:45:24;49.50;;;25.23;;
26690;SDS011;14307;51.718;8.938;2023-02-03T11:47:53;54.38;;;24.80;;
26690;SDS011;14307;51.718;8.938;2023-02-03T11:50:28;44.83;;;23.10;;
26690;SDS011;14307;51.718;8.938;2023-02-03T11:53:30;48.28;;;23.90;;
26690;SDS011;14307;51.718;8.938;2023-02-03T11:56:36;45.60;;;22.05;;
26690;SDS011;14307;51.718;8.938;2023-02-03T12:07:47;53.25;;;24.98;;
26690;SDS011;14307;51.718;8.938;2023-02-03T12:13:17;47.50;;;20.25;;
26690;SDS011;14307;51.718;8.938;2023-02-03T12:19:13;20.63;;;9.82;;
26690;SDS011;14307;51.718;8.938;2023-02-03T12:21:59;14.90;;;7.90;;
26690;SDS011;14307;51.718;8.938;2023-02-03T12:27:41;27.67;;;12.35;;
26690;SDS011;14307;51.718;8.938;2023-02-03T12:30:40;33.33;;;13.25;;
26690;SDS011;14307;51.718;8.938;2023-02-03T12:35:47;22.55;;;12.15;;
26690;SDS011;14307;51.718;8.938;2023-02-03T12:41:16;27.70;;;13.38;;
26690;SDS011;14307;51.718;8.938;2023-02-03T12:43:48;26.52;;;13.65;;
26690;SDS011;14307;51.718;8.938;2023-02-03T12:46:19;31.42;;;14.73;;
26690;SDS011;14307;51.718;8.938;2023-02-03T12:51:56;30.23;;;12.60;;
26690;SDS011;14307;51.718;8.938;2023-02-03T12:54:36;29.52;;;11.50;;
26690;SDS011;14307;51.718;8.938;2023-02-03T13:00:11;40.58;;;15.00;;
26690;SDS011;14307;51.718;8.938;2023-02-03T13:02:46;49.47;;;17.67;;
26690;SDS011;14307;51.718;8.938;2023-02-03T13:14:04;52.25;;;15.50;;
26690;SDS011;14307;51.718;8.938;2023-02-03T13:19:57;49.78;;;13.48;;
26690;SDS011;14307;51.718;8.938;2023-02-03T13:22:30;45.50;;;11.98;;
26690;SDS011;14307;51.718;8.938;2023-02-03T13:25:17;30.33;;;12.73;;
26690;SDS011;14307;51.718;8.938;2023-02-03T13:33:15;38.78;;;12.35;;
26690;SDS011;14307;51.718;8.938;2023-02-03T13:44:49;42.78;;;11.43;;
26690;SDS011;14307;51.718;8.938;2023-02-03T13:47:22;30.40;;;9.77;;
26690;SDS011;14307;51.718;8.938;2023-02-03T13:49:57;37.25;;;9.85;;
26690;SDS011;14307;51.718;8.938;2023-02-03T13:52:32;51.22;;;12.50;;
26690;SDS011;14307;51.718;8.938;2023-02-03T13:54:59;44.80;;;10.77;;
26690;SDS011;14307;51.718;8.938;2023-02-03T13:57:34;33.72;;;10.32;;
26690;SDS011;14307;51.718;8.938;2023-02-03T14:00:06;41.92;;;9.38;;
26690;SDS011;14307;51.718;8.938;2023-02-03T14:03:17;36.90;;;8.23;;
26690;SDS011;14307;51.718;8.938;2023-02-03T14:05:45;35.08;;;10.13;;
26690;SDS011;14307;51.718;8.938;2023-02-03T14:16:33;37.97;;;7.75;;
26690;SDS011;14307;51.718;8.938;2023-02-03T14:19:02;34.33;;;8.55;;
26690;SDS011;14307;51.718;8.938;2023-02-03T14:26:59;34.65;;;8.63;;
26690;SDS011;14307;51.718;8.938;2023-02-03T14:29:35;38.03;;;7.63;;
26690;SDS011;14307;51.718;8.938;2023-02-03T14:32:06;49.20;;;7.45;;
26690;SDS011;14307;51.718;8.938;2023-02-03T14:34:41;25.58;;;6.45;;
26690;SDS011;14307;51.718;8.938;2023-02-03T14:37:23;39.15;;;7.47;;
26690;SDS011;14307;51.718;8.938;2023-02-03T14:39:59;37.20;;;7.50;;
26690;SDS011;14307;51.718;8.938;2023-02-03T14:43:12;32.88;;;8.40;;
26690;SDS011;14307;51.718;8.938;2023-02-03T14:46:13;34.33;;;8.27;;
26690;SDS011;14307;51.718;8.938;2023-02-03T14:51:37;30.52;;;9.55;;
26690;SDS011;14307;51.718;8.938;2023-02-03T14:57:11;33.78;;;7.75;;
26690;SDS011;14307;51.718;8.938;2023-02-03T15:03:13;27.20;;;7.95;;
26690;SDS011;14307;51.718;8.938;2023-02-03T15:07:58;30.98;;;7.13;;
26690;SDS011;14307;51.718;8.938;2023-02-03T15:10:42;33.50;;;8.32;;
26690;SDS011;14307;51.718;8.938;2023-02-03T15:13:22;29.38;;;7.45;;
26690;SDS011;14307;51.718;8.938;2023-02-03T15:16:02;26.17;;;7.00;;
26690;SDS011;14307;51.718;8.938;2023-02-03T15:18:31;33.25;;;8.20;;
26690;SDS011;14307;51.718;8.938;2023-02-03T15:21:12;45.70;;;8.13;;
26690;SDS011;14307;51.718;8.938;2023-02-03T15:23:44;34.25;;;9.18;;
26690;SDS011;14307;51.718;8.938;2023-02-03T15:26:25;34.08;;;8.60;;
26690;SDS011;14307;51.718;8.938;2023-02-03T15:28:53;31.40;;;9.68;;
26690;SDS011;14307;51.718;8.938;2023-02-03T15:31:45;34.60;;;8.63;;
26690;SDS011;14307;51.718;8.938;2023-02-03T15:34:20;29.52;;;8.75;;
26690;SDS011;14307;51.718;8.938;2023-02-03T15:36:51;24.45;;;7.85;;
26690;SDS011;14307;51.718;8.938;2023-02-03T15:39:39;35.40;;;8.55;;
26690;SDS011;14307;51.718;8.938;2023-02-03T15:42:13;29.33;;;7.53;;
26690;SDS011;14307;51.718;8.938;2023-02-03T15:44:48;39.20;;;8.45;;
26690;SDS011;14307;51.718;8.938;2023-02-03T15:47:34;23.55;;;7.35;;
26690;SDS011;14307;51.718;8.938;2023-02-03T15:50:13;36.40;;;9.57;;
26690;SDS011;14307;51.718;8.938;2023-02-03T15:52:56;26.05;;;8.25;;
26690;SDS011;14307;51.718;8.938;2023-02-03T15:55:35;33.20;;;8.20;;
26690;SDS011;14307;51.718;8.938;2023-02-03T15:58:12;27.33;;;8.45;;
26690;SDS011;14307;51.718;8.938;2023-02-03T16:03:39;27.38;;;8.13;;
26690;SDS011;14307;51.718;8.938;2023-02-03T16:06:15;25.55;;;9.05;;
26690;SDS011;14307;51.718;8.938;2023-02-03T16:08:56;26.58;;;9.95;;
26690;SDS011;14307;51.718;8.938;2023-02-03T16:14:04;28.85;;;9.85;;
26690;SDS011;14307;51.718;8.938;2023-02-03T16:16:39;35.58;;;10.88;;
26690;SDS011;14307;51.718;8.938;2023-02-03T16:19:15;31.13;;;11.45;;
26690;SDS011;14307;51.718;8.938;2023-02-03T16:29:46;20.95;;;13.02;;
26690;SDS011;14307;51.718;8.938;2023-02-03T16:35:16;36.90;;;13.43;;
26690;SDS011;14307;51.718;8.938;2023-02-03T16:40:51;33.25;;;14.13;;
26690;SDS011;14307;51.718;8.938;2023-02-03T16:43:36;26.08;;;14.75;;
26690;SDS011;14307;51.718;8.938;2023-02-03T16:46:21;32.15;;;13.70;;
26690;SDS011;14307;51.718;8.938;2023-02-03T16:51:52;34.90;;;13.10;;
26690;SDS011;14307;51.718;8.938;2023-02-03T16:54:19;29.65;;;14.18;;
26690;SDS011;14307;51.718;8.938;2023-02-03T16:56:46;27.17;;;11.95;;
26690;SDS011;14307;51.718;8.938;2023-02-03T16:59:12;38.35;;;12.10;;
26690;SDS011;14307;51.718;8.938;2023-02-03T17:01:39;35.42;;;14.05;;
26690;SDS011;14307;51.718;8.938;2023-02-03T17:04:06;34.22;;;11.43;;
26690;SDS011;14307;51.718;8.938;2023-02-03T17:06:35;35.25;;;12.45;;
26690;SDS011;14307;51.718;8.938;2023-02-03T17:09:03;37.15;;;10.95;;
26690;SDS011;14307;51.718;8.938;2023-02-03T17:11:30;24.13;;;9.95;;
26690;SDS011;14307;51.718;8.938;2023-02-03T17:13:56;23.60;;;9.60;;
26690;SDS011;14307;51.718;8.938;2023-02-03T17:16:24;31.23;;;12.40;;